sensor_id;sensor_type;location;lat;lon;timestamp;P1;durP1;ratioP1;P2;durP2;ratioP2
17993;SDS011;9122;48.406;9.984;2022-12-29T00:02:39;2.80;;;2.60;;
17993;SDS011;9122;48.406;9.984;2022-12-29T00:42:46;3.43;;;3.13;;
17993;SDS011;9122;48.406;9.984;2022-12-29T00:45:50;3.33;;;2.60;;
17993;SDS011;9122;48.406;9.984;2022-12-29T00:48:34;3.27;;;3.07;;
17993;SDS011;9122;48.406;9.984;2022-12-29T00:51:37;4.40;;;4.00;;
17993;SDS011;9122;48.406;9.984;2022-12-29T00:54:22;5.77;;;5.27;;
17993;SDS011;9122;48.406;9.984;2022-12-29T00:57:08;4.40;;;4.10;;
17993;SDS011;9122;48.406;9.984;2022-12-29T00:59:53;4.23;;;3.83;;
17993;SDS011;9122;48.406;9.984;2022-12-29T01:02:38;4.27;;;3.87;;
17993;SDS011;9122;48.406;9.984;2022-12-29T01:05:21;3.80;;;3.50;;
17993;SDS011;9122;48.406;9.984;2022-12-29T01:08:06;3.93;;;3.40;;
17993;SDS011;9122;48.406;9.984;2022-12-29T01:11:04;3.70;;;3.10;;
17993;SDS011;9122;48.406;9.984;2022-12-29T01:13:50;7.07;;;4.00;;
17993;SDS011;9122;48.406;9.984;2022-12-29T01:16:35;4.10;;;3.67;;
17993;SDS011;9122;48.406;9.984;2022-12-29T01:19:20;3.77;;;3.27;;
17993;SDS011;9122;48.406;9.984;2022-12-29T01:22:05;2.83;;;2.60;;
17993;SDS011;9122;48.406;9.984;2022-12-29T01:24:50;3.23;;;2.93;;
17993;SDS011;9122;48.406;9.984;2022-12-29T01:27:37;2.83;;;2.63;;
17993;SDS011;9122;48.406;9.984;2022-12-29T01:30:22;3.10;;;2.90;;
17993;SDS011;9122;48.406;9.984;2022-12-29T01:33:07;3.50;;;3.20;;
17993;SDS011;9122;48.406;9.984;2022-12-29T01:35:51;2.70;;;2.50;;
17993;SDS011;9122;48.406;9.984;2022-12-29T01:38:36;3.40;;;2.67;;
17993;SDS011;9122;48.406;9.984;2022-12-29T01:41:21;2.73;;;2.53;;
17993;SDS011;9122;48.406;9.984;2022-12-29T01:45:08;2.50;;;2.30;;
17993;SDS011;9122;48.406;9.984;2022-12-29T01:50:45;2.70;;;2.50;;
17993;SDS011;9122;48.406;9.984;2022-12-29T01:53:36;2.60;;;2.40;;
17993;SDS011;9122;48.406;9.984;2022-12-29T01:56:26;3.10;;;2.90;;
17993;SDS011;9122;48.406;9.984;2022-12-29T01:59:12;3.00;;;2.70;;
17993;SDS011;9122;48.406;9.984;2022-12-29T02:02:01;2.90;;;2.70;;
17993;SDS011;9122;48.406;9.984;2022-12-29T02:04:46;2.90;;;2.70;;
17993;SDS011;9122;48.406;9.984;2022-12-29T02:07:31;3.73;;;2.63;;
17993;SDS011;9122;48.406;9.984;2022-12-29T02:10:16;3.23;;;2.93;;
17993;SDS011;9122;48.406;9.984;2022-12-29T02:13:03;3.57;;;3.37;;
17993;SDS011;9122;48.406;9.984;2022-12-29T02:15:51;3.17;;;2.97;;
17993;SDS011;9122;48.406;9.984;2022-12-29T02:39:49;3.17;;;2.97;;
17993;SDS011;9122;48.406;9.984;2022-12-29T02:42:49;3.57;;;3.27;;
17993;SDS011;9122;48.406;9.984;2022-12-29T02:45:36;3.50;;;3.20;;
17993;SDS011;9122;48.406;9.984;2022-12-29T02:51:23;3.57;;;3.20;;
17993;SDS011;9122;48.406;9.984;2022-12-29T02:54:20;4.37;;;3.23;;
17993;SDS011;9122;48.406;9.984;2022-12-29T03:03:20;4.27;;;3.47;;
17993;SDS011;9122;48.406;9.984;2022-12-29T03:06:21;2.97;;;2.67;;
17993;SDS011;9122;48.406;9.984;2022-12-29T03:09:31;3.07;;;2.87;;
17993;SDS011;9122;48.406;9.984;2022-12-29T03:16:05;2.83;;;2.63;;
17993;SDS011;9122;48.406;9.984;2022-12-29T03:22:01;3.10;;;2.77;;
17993;SDS011;9122;48.406;9.984;2022-12-29T03:25:19;2.63;;;2.43;;
17993;SDS011;9122;48.406;9.984;2022-12-29T03:28:08;3.47;;;3.17;;
17993;SDS011;9122;48.406;9.984;2022-12-29T03:30:57;3.50;;;2.90;;
17993;SDS011;9122;48.406;9.984;2022-12-29T03:33:42;3.23;;;2.93;;
17993;SDS011;9122;48.406;9.984;2022-12-29T03:36:30;3.57;;;3.27;;
17993;SDS011;9122;48.406;9.984;2022-12-29T03:39:23;3.13;;;2.93;;
17993;SDS011;9122;48.406;9.984;2022-12-29T03:42:17;4.13;;;2.70;;
17993;SDS011;9122;48.406;9.984;2022-12-29T03:45:04;3.37;;;3.07;;
17993;SDS011;9122;48.406;9.984;2022-12-29T03:47:51;2.90;;;2.67;;
17993;SDS011;9122;48.406;9.984;2022-12-29T03:50:37;2.97;;;2.67;;
17993;SDS011;9122;48.406;9.984;2022-12-29T03:53:21;2.70;;;2.50;;
17993;SDS011;9122;48.406;9.984;2022-12-29T03:56:06;2.63;;;2.43;;
17993;SDS011;9122;48.406;9.984;2022-12-29T03:58:51;2.83;;;2.63;;
17993;SDS011;9122;48.406;9.984;2022-12-29T04:01:35;2.73;;;2.53;;
17993;SDS011;9122;48.406;9.984;2022-12-29T04:04:19;2.37;;;2.17;;
17993;SDS011;9122;48.406;9.984;2022-12-29T04:07:04;2.57;;;2.30;;
17993;SDS011;9122;48.406;9.984;2022-12-29T04:09:49;2.10;;;2.00;;
17993;SDS011;9122;48.406;9.984;2022-12-29T04:12:34;2.13;;;1.93;;
17993;SDS011;9122;48.406;9.984;2022-12-29T04:15:19;3.00;;;2.33;;
17993;SDS011;9122;48.406;9.984;2022-12-29T04:18:04;2.90;;;2.30;;
17993;SDS011;9122;48.406;9.984;2022-12-29T04:20:48;2.47;;;2.27;;
17993;SDS011;9122;48.406;9.984;2022-12-29T04:23:46;2.60;;;2.40;;
17993;SDS011;9122;48.406;9.984;2022-12-29T04:26:30;4.27;;;2.40;;
17993;SDS011;9122;48.406;9.984;2022-12-29T04:29:14;2.53;;;2.33;;
17993;SDS011;9122;48.406;9.984;2022-12-29T04:31:59;2.40;;;2.20;;
17993;SDS011;9122;48.406;9.984;2022-12-29T04:34:43;2.70;;;2.50;;
17993;SDS011;9122;48.406;9.984;2022-12-29T04:37:28;2.43;;;2.17;;
17993;SDS011;9122;48.406;9.984;2022-12-29T04:40:13;2.30;;;2.10;;
17993;SDS011;9122;48.406;9.984;2022-12-29T04:42:57;2.70;;;2.50;;
17993;SDS011;9122;48.406;9.984;2022-12-29T04:45:43;2.63;;;2.30;;
17993;SDS011;9122;48.406;9.984;2022-12-29T04:48:28;3.40;;;2.60;;
17993;SDS011;9122;48.406;9.984;2022-12-29T04:51:12;2.00;;;1.80;;
17993;SDS011;9122;48.406;9.984;2022-12-29T04:53:57;3.87;;;2.13;;
17993;SDS011;9122;48.406;9.984;2022-12-29T04:56:41;3.13;;;1.97;;
17993;SDS011;9122;48.406;9.984;2022-12-29T04:59:26;3.23;;;1.70;;
17993;SDS011;9122;48.406;9.984;2022-12-29T05:02:10;2.30;;;2.10;;
17993;SDS011;9122;48.406;9.984;2022-12-29T05:04:55;2.40;;;2.20;;
17993;SDS011;9122;48.406;9.984;2022-12-29T05:07:39;2.33;;;2.13;;
17993;SDS011;9122;48.406;9.984;2022-12-29T05:10:24;2.27;;;2.07;;
17993;SDS011;9122;48.406;9.984;2022-12-29T05:13:09;3.33;;;3.03;;
17993;SDS011;9122;48.406;9.984;2022-12-29T05:15:54;2.70;;;2.50;;
17993;SDS011;9122;48.406;9.984;2022-12-29T05:18:39;2.60;;;2.40;;
17993;SDS011;9122;48.406;9.984;2022-12-29T05:21:24;2.63;;;2.30;;
17993;SDS011;9122;48.406;9.984;2022-12-29T05:24:08;2.47;;;2.20;;
17993;SDS011;9122;48.406;9.984;2022-12-29T05:26:53;2.27;;;2.07;;
17993;SDS011;9122;48.406;9.984;2022-12-29T05:29:39;2.10;;;1.80;;
17993;SDS011;9122;48.406;9.984;2022-12-29T05:32:24;2.67;;;2.47;;
17993;SDS011;9122;48.406;9.984;2022-12-29T05:35:09;2.03;;;1.90;;
17993;SDS011;9122;48.406;9.984;2022-12-29T05:37:54;3.03;;;1.83;;
17993;SDS011;9122;48.406;9.984;2022-12-29T05:40:38;2.50;;;2.30;;
17993;SDS011;9122;48.406;9.984;2022-12-29T05:43:23;2.43;;;2.17;;
17993;SDS011;9122;48.406;9.984;2022-12-29T05:46:07;2.87;;;2.67;;
17993;SDS011;9122;48.406;9.984;2022-12-29T05:48:52;2.30;;;2.07;;
17993;SDS011;9122;48.406;9.984;2022-12-29T05:51:37;2.17;;;1.93;;
17993;SDS011;9122;48.406;9.984;2022-12-29T05:54:22;3.03;;;2.60;;
17993;SDS011;9122;48.406;9.984;2022-12-29T05:57:06;4.00;;;2.30;;
17993;SDS011;9122;48.406;9.984;2022-12-29T05:59:51;2.37;;;2.17;;
17993;SDS011;9122;48.406;9.984;2022-12-29T06:02:36;2.77;;;2.13;;
17993;SDS011;9122;48.406;9.984;2022-12-29T06:05:20;2.40;;;2.20;;
17993;SDS011;9122;48.406;9.984;2022-12-29T06:08:05;3.27;;;1.97;;
17993;SDS011;9122;48.406;9.984;2022-12-29T06:10:50;2.37;;;2.17;;
17993;SDS011;9122;48.406;9.984;2022-12-29T06:13:35;2.37;;;2.17;;
17993;SDS011;9122;48.406;9.984;2022-12-29T06:16:20;2.13;;;2.03;;
17993;SDS011;9122;48.406;9.984;2022-12-29T06:19:04;2.20;;;2.10;;
17993;SDS011;9122;48.406;9.984;2022-12-29T06:21:49;2.20;;;2.00;;
17993;SDS011;9122;48.406;9.984;2022-12-29T06:24:34;2.30;;;2.20;;
17993;SDS011;9122;48.406;9.984;2022-12-29T06:27:19;2.50;;;2.30;;
17993;SDS011;9122;48.406;9.984;2022-12-29T06:30:04;2.47;;;2.27;;
17993;SDS011;9122;48.406;9.984;2022-12-29T06:32:49;2.73;;;2.50;;
17993;SDS011;9122;48.406;9.984;2022-12-29T06:35:34;2.50;;;2.10;;
17993;SDS011;9122;48.406;9.984;2022-12-29T06:38:19;2.47;;;2.27;;
17993;SDS011;9122;48.406;9.984;2022-12-29T06:41:03;2.67;;;2.47;;
17993;SDS011;9122;48.406;9.984;2022-12-29T06:43:47;2.20;;;2.10;;
17993;SDS011;9122;48.406;9.984;2022-12-29T06:46:34;2.30;;;2.10;;
17993;SDS011;9122;48.406;9.984;2022-12-29T06:49:20;2.30;;;2.03;;
17993;SDS011;9122;48.406;9.984;2022-12-29T06:52:08;1.80;;;1.70;;
17993;SDS011;9122;48.406;9.984;2022-12-29T06:54:59;2.20;;;1.93;;
17993;SDS011;9122;48.406;9.984;2022-12-29T07:00:53;2.33;;;2.03;;
17993;SDS011;9122;48.406;9.984;2022-12-29T07:03:38;2.30;;;2.10;;
17993;SDS011;9122;48.406;9.984;2022-12-29T07:06:25;2.23;;;2.03;;
17993;SDS011;9122;48.406;9.984;2022-12-29T07:09:09;2.30;;;2.10;;
17993;SDS011;9122;48.406;9.984;2022-12-29T07:11:54;2.67;;;2.47;;
17993;SDS011;9122;48.406;9.984;2022-12-29T07:14:38;2.27;;;2.17;;
17993;SDS011;9122;48.406;9.984;2022-12-29T07:17:23;2.60;;;2.30;;
17993;SDS011;9122;48.406;9.984;2022-12-29T07:20:08;2.93;;;2.30;;
17993;SDS011;9122;48.406;9.984;2022-12-29T07:22:55;2.27;;;2.17;;
17993;SDS011;9122;48.406;9.984;2022-12-29T07:25:40;2.53;;;2.33;;
17993;SDS011;9122;48.406;9.984;2022-12-29T07:28:24;2.50;;;2.30;;
17993;SDS011;9122;48.406;9.984;2022-12-29T07:31:12;2.47;;;2.30;;
17993;SDS011;9122;48.406;9.984;2022-12-29T07:34:02;2.83;;;2.63;;
17993;SDS011;9122;48.406;9.984;2022-12-29T07:37:00;3.33;;;3.03;;
17993;SDS011;9122;48.406;9.984;2022-12-29T07:39:44;2.63;;;2.43;;
17993;SDS011;9122;48.406;9.984;2022-12-29T07:42:29;2.90;;;2.57;;
17993;SDS011;9122;48.406;9.984;2022-12-29T07:45:17;2.27;;;2.10;;
17993;SDS011;9122;48.406;9.984;2022-12-29T07:48:01;3.63;;;2.87;;
17993;SDS011;9122;48.406;9.984;2022-12-29T07:50:46;2.70;;;2.50;;
17993;SDS011;9122;48.406;9.984;2022-12-29T07:53:31;3.07;;;2.77;;
17993;SDS011;9122;48.406;9.984;2022-12-29T07:56:16;2.53;;;2.37;;
17993;SDS011;9122;48.406;9.984;2022-12-29T07:59:00;3.23;;;2.97;;
17993;SDS011;9122;48.406;9.984;2022-12-29T08:01:45;5.20;;;3.70;;
17993;SDS011;9122;48.406;9.984;2022-12-29T08:04:31;3.57;;;3.27;;
17993;SDS011;9122;48.406;9.984;2022-12-29T08:07:15;4.27;;;2.50;;
17993;SDS011;9122;48.406;9.984;2022-12-29T08:10:00;3.20;;;3.00;;
17993;SDS011;9122;48.406;9.984;2022-12-29T08:12:45;2.83;;;2.60;;
17993;SDS011;9122;48.406;9.984;2022-12-29T08:15:29;2.70;;;2.50;;
17993;SDS011;9122;48.406;9.984;2022-12-29T08:18:14;2.70;;;2.50;;
17993;SDS011;9122;48.406;9.984;2022-12-29T08:21:03;2.77;;;2.57;;
17993;SDS011;9122;48.406;9.984;2022-12-29T08:23:48;2.93;;;2.70;;
17993;SDS011;9122;48.406;9.984;2022-12-29T08:26:33;3.03;;;2.83;;
17993;SDS011;9122;48.406;9.984;2022-12-29T08:29:20;3.30;;;3.00;;
17993;SDS011;9122;48.406;9.984;2022-12-29T08:32:05;2.80;;;2.60;;
17993;SDS011;9122;48.406;9.984;2022-12-29T08:34:50;2.87;;;2.67;;
17993;SDS011;9122;48.406;9.984;2022-12-29T08:37:34;3.40;;;3.10;;
17993;SDS011;9122;48.406;9.984;2022-12-29T08:40:19;3.73;;;3.43;;
17993;SDS011;9122;48.406;9.984;2022-12-29T08:43:04;3.47;;;3.13;;
17993;SDS011;9122;48.406;9.984;2022-12-29T08:45:48;3.23;;;2.93;;
17993;SDS011;9122;48.406;9.984;2022-12-29T08:48:43;3.27;;;2.87;;
17993;SDS011;9122;48.406;9.984;2022-12-29T08:51:51;3.47;;;3.17;;
17993;SDS011;9122;48.406;9.984;2022-12-29T08:54:39;3.63;;;3.33;;
17993;SDS011;9122;48.406;9.984;2022-12-29T08:57:23;3.73;;;3.40;;
17993;SDS011;9122;48.406;9.984;2022-12-29T09:00:10;3.93;;;3.40;;
17993;SDS011;9122;48.406;9.984;2022-12-29T09:02:59;3.33;;;3.03;;
17993;SDS011;9122;48.406;9.984;2022-12-29T09:05:50;3.40;;;3.10;;
17993;SDS011;9122;48.406;9.984;2022-12-29T09:08:35;3.47;;;3.27;;
17993;SDS011;9122;48.406;9.984;2022-12-29T09:11:37;3.80;;;3.17;;
17993;SDS011;9122;48.406;9.984;2022-12-29T09:14:25;4.97;;;3.03;;
17993;SDS011;9122;48.406;9.984;2022-12-29T09:17:36;3.53;;;3.20;;
17993;SDS011;9122;48.406;9.984;2022-12-29T09:20:29;3.17;;;2.97;;
17993;SDS011;9122;48.406;9.984;2022-12-29T09:23:26;3.87;;;3.57;;
17993;SDS011;9122;48.406;9.984;2022-12-29T09:26:11;3.27;;;2.97;;
17993;SDS011;9122;48.406;9.984;2022-12-29T09:48:22;3.47;;;2.90;;
17993;SDS011;9122;48.406;9.984;2022-12-29T09:51:11;3.10;;;2.80;;
17993;SDS011;9122;48.406;9.984;2022-12-29T09:54:52;3.03;;;2.83;;
17993;SDS011;9122;48.406;9.984;2022-12-29T10:00:39;4.23;;;3.83;;
17993;SDS011;9122;48.406;9.984;2022-12-29T10:03:48;3.37;;;3.10;;
17993;SDS011;9122;48.406;9.984;2022-12-29T10:21:50;3.13;;;2.80;;
17993;SDS011;9122;48.406;9.984;2022-12-29T10:24:56;4.60;;;2.83;;
17993;SDS011;9122;48.406;9.984;2022-12-29T10:27:42;3.33;;;3.00;;
17993;SDS011;9122;48.406;9.984;2022-12-29T10:30:31;3.30;;;3.03;;
17993;SDS011;9122;48.406;9.984;2022-12-29T10:33:19;3.93;;;2.83;;
17993;SDS011;9122;48.406;9.984;2022-12-29T10:36:13;5.47;;;3.20;;
17993;SDS011;9122;48.406;9.984;2022-12-29T10:39:04;3.37;;;3.13;;
17993;SDS011;9122;48.406;9.984;2022-12-29T10:42:17;4.23;;;2.87;;
17993;SDS011;9122;48.406;9.984;2022-12-29T10:45:10;3.27;;;2.97;;
17993;SDS011;9122;48.406;9.984;2022-12-29T10:48:32;3.57;;;3.27;;
17993;SDS011;9122;48.406;9.984;2022-12-29T10:51:21;4.27;;;2.87;;
17993;SDS011;9122;48.406;9.984;2022-12-29T10:54:16;3.03;;;2.80;;
17993;SDS011;9122;48.406;9.984;2022-12-29T10:57:13;3.07;;;2.70;;
17993;SDS011;9122;48.406;9.984;2022-12-29T11:00:00;3.73;;;2.47;;
17993;SDS011;9122;48.406;9.984;2022-12-29T11:06:11;3.63;;;3.07;;
17993;SDS011;9122;48.406;9.984;2022-12-29T11:09:28;4.40;;;2.80;;
17993;SDS011;9122;48.406;9.984;2022-12-29T11:12:25;3.27;;;3.00;;
17993;SDS011;9122;48.406;9.984;2022-12-29T11:15:13;3.07;;;2.87;;
17993;SDS011;9122;48.406;9.984;2022-12-29T11:18:01;4.83;;;3.23;;
17993;SDS011;9122;48.406;9.984;2022-12-29T11:20:46;2.53;;;2.33;;
17993;SDS011;9122;48.406;9.984;2022-12-29T11:26:17;3.07;;;2.77;;
17993;SDS011;9122;48.406;9.984;2022-12-29T11:31:53;2.80;;;2.53;;
17993;SDS011;9122;48.406;9.984;2022-12-29T11:34:39;3.30;;;2.47;;
17993;SDS011;9122;48.406;9.984;2022-12-29T11:37:28;4.07;;;2.20;;
17993;SDS011;9122;48.406;9.984;2022-12-29T11:40:24;4.83;;;2.63;;
17993;SDS011;9122;48.406;9.984;2022-12-29T11:43:19;2.63;;;2.43;;
17993;SDS011;9122;48.406;9.984;2022-12-29T11:46:19;4.37;;;3.10;;
17993;SDS011;9122;48.406;9.984;2022-12-29T11:49:16;3.03;;;2.13;;
17993;SDS011;9122;48.406;9.984;2022-12-29T11:52:06;2.87;;;2.37;;
17993;SDS011;9122;48.406;9.984;2022-12-29T11:54:53;5.00;;;2.53;;
17993;SDS011;9122;48.406;9.984;2022-12-29T11:57:42;2.80;;;2.27;;
17993;SDS011;9122;48.406;9.984;2022-12-29T12:00:28;2.63;;;2.33;;
17993;SDS011;9122;48.406;9.984;2022-12-29T12:03:21;2.50;;;2.30;;
17993;SDS011;9122;48.406;9.984;2022-12-29T12:06:26;3.00;;;2.20;;
17993;SDS011;9122;48.406;9.984;2022-12-29T12:10:10;2.40;;;2.20;;
17993;SDS011;9122;48.406;9.984;2022-12-29T12:12:50;3.70;;;2.40;;
17993;SDS011;9122;48.406;9.984;2022-12-29T12:15:57;3.03;;;2.63;;
17993;SDS011;9122;48.406;9.984;2022-12-29T12:22:33;3.53;;;2.30;;
17993;SDS011;9122;48.406;9.984;2022-12-29T12:25:30;3.10;;;2.30;;
17993;SDS011;9122;48.406;9.984;2022-12-29T12:28:36;3.03;;;2.47;;
17993;SDS011;9122;48.406;9.984;2022-12-29T12:31:32;3.70;;;2.47;;
17993;SDS011;9122;48.406;9.984;2022-12-29T12:34:59;2.47;;;2.27;;
17993;SDS011;9122;48.406;9.984;2022-12-29T13:38:52;3.47;;;2.60;;
17993;SDS011;9122;48.406;9.984;2022-12-29T13:41:50;2.67;;;2.30;;
17993;SDS011;9122;48.406;9.984;2022-12-29T13:44:43;2.30;;;2.10;;
17993;SDS011;9122;48.406;9.984;2022-12-29T13:50:25;2.43;;;2.17;;
17993;SDS011;9122;48.406;9.984;2022-12-29T13:53:33;2.60;;;2.33;;
17993;SDS011;9122;48.406;9.984;2022-12-29T13:57:12;5.00;;;2.40;;
17993;SDS011;9122;48.406;9.984;2022-12-29T14:00:14;3.80;;;2.00;;
17993;SDS011;9122;48.406;9.984;2022-12-29T14:03:19;4.83;;;2.93;;
17993;SDS011;9122;48.406;9.984;2022-12-29T14:06:27;3.87;;;2.33;;
17993;SDS011;9122;48.406;9.984;2022-12-29T14:09:45;2.90;;;2.63;;
17993;SDS011;9122;48.406;9.984;2022-12-29T14:12:38;2.53;;;2.33;;
17993;SDS011;9122;48.406;9.984;2022-12-29T14:15:27;3.00;;;2.67;;
17993;SDS011;9122;48.406;9.984;2022-12-29T14:18:54;2.93;;;2.43;;
17993;SDS011;9122;48.406;9.984;2022-12-29T14:21:25;2.40;;;2.10;;
17993;SDS011;9122;48.406;9.984;2022-12-29T14:30:06;2.50;;;2.30;;
17993;SDS011;9122;48.406;9.984;2022-12-29T14:33:31;2.13;;;1.93;;
17993;SDS011;9122;48.406;9.984;2022-12-29T14:36:25;2.10;;;2.00;;
17993;SDS011;9122;48.406;9.984;2022-12-29T14:39:33;3.60;;;2.07;;
17993;SDS011;9122;48.406;9.984;2022-12-29T14:42:32;5.23;;;2.20;;
17993;SDS011;9122;48.406;9.984;2022-12-29T14:46:23;2.30;;;2.10;;
17993;SDS011;9122;48.406;9.984;2022-12-29T14:49:30;2.90;;;1.90;;
17993;SDS011;9122;48.406;9.984;2022-12-29T14:52:21;2.20;;;2.00;;
17993;SDS011;9122;48.406;9.984;2022-12-29T14:58:03;2.20;;;2.00;;
17993;SDS011;9122;48.406;9.984;2022-12-29T15:04:32;1.97;;;1.73;;
17993;SDS011;9122;48.406;9.984;2022-12-29T15:07:19;2.80;;;2.30;;
17993;SDS011;9122;48.406;9.984;2022-12-29T15:10:05;2.40;;;2.20;;
17993;SDS011;9122;48.406;9.984;2022-12-29T15:13:00;2.10;;;2.00;;
17993;SDS011;9122;48.406;9.984;2022-12-29T15:15:55;2.23;;;2.07;;
17993;SDS011;9122;48.406;9.984;2022-12-29T15:18:48;2.27;;;2.00;;
17993;SDS011;9122;48.406;9.984;2022-12-29T15:21:48;2.47;;;2.30;;
17993;SDS011;9122;48.406;9.984;2022-12-29T15:24:39;2.37;;;2.17;;
17993;SDS011;9122;48.406;9.984;2022-12-29T15:27:35;2.70;;;2.20;;
17993;SDS011;9122;48.406;9.984;2022-12-29T15:30:23;2.83;;;2.20;;
17993;SDS011;9122;48.406;9.984;2022-12-29T15:33:22;2.50;;;2.30;;
17993;SDS011;9122;48.406;9.984;2022-12-29T15:36:22;2.97;;;2.70;;
17993;SDS011;9122;48.406;9.984;2022-12-29T15:45:44;2.80;;;2.50;;
17993;SDS011;9122;48.406;9.984;2022-12-29T15:48:30;3.50;;;3.17;;
17993;SDS011;9122;48.406;9.984;2022-12-29T16:01:00;4.03;;;3.70;;
17993;SDS011;9122;48.406;9.984;2022-12-29T16:03:52;5.50;;;4.10;;
17993;SDS011;9122;48.406;9.984;2022-12-29T16:06:38;4.83;;;4.40;;
17993;SDS011;9122;48.406;9.984;2022-12-29T16:09:54;4.63;;;4.20;;
17993;SDS011;9122;48.406;9.984;2022-12-29T16:12:45;4.37;;;3.90;;
17993;SDS011;9122;48.406;9.984;2022-12-29T16:15:41;4.57;;;4.17;;
17993;SDS011;9122;48.406;9.984;2022-12-29T16:22:44;3.33;;;2.97;;
17993;SDS011;9122;48.406;9.984;2022-12-29T16:25:32;2.47;;;2.13;;
17993;SDS011;9122;48.406;9.984;2022-12-29T16:28:40;3.07;;;2.43;;
17993;SDS011;9122;48.406;9.984;2022-12-29T16:34:42;2.67;;;2.40;;
17993;SDS011;9122;48.406;9.984;2022-12-29T16:38:34;2.67;;;2.47;;
17993;SDS011;9122;48.406;9.984;2022-12-29T16:40:58;2.47;;;2.27;;
17993;SDS011;9122;48.406;9.984;2022-12-29T16:57:47;2.77;;;2.50;;
17993;SDS011;9122;48.406;9.984;2022-12-29T17:00:34;3.13;;;2.57;;
17993;SDS011;9122;48.406;9.984;2022-12-29T17:03:21;3.77;;;2.57;;
17993;SDS011;9122;48.406;9.984;2022-12-29T17:06:20;4.73;;;2.77;;
17993;SDS011;9122;48.406;9.984;2022-12-29T17:12:05;3.20;;;2.77;;
17993;SDS011;9122;48.406;9.984;2022-12-29T17:14:58;3.07;;;2.77;;
17993;SDS011;9122;48.406;9.984;2022-12-29T17:17:56;3.70;;;2.97;;
17993;SDS011;9122;48.406;9.984;2022-12-29T17:20:40;3.10;;;2.90;;
17993;SDS011;9122;48.406;9.984;2022-12-29T17:23:25;3.97;;;3.50;;
17993;SDS011;9122;48.406;9.984;2022-12-29T17:26:13;3.77;;;3.30;;
17993;SDS011;9122;48.406;9.984;2022-12-29T17:28:57;3.57;;;2.80;;
17993;SDS011;9122;48.406;9.984;2022-12-29T17:31:42;3.70;;;3.40;;
17993;SDS011;9122;48.406;9.984;2022-12-29T17:34:27;3.30;;;2.97;;
17993;SDS011;9122;48.406;9.984;2022-12-29T17:37:33;3.27;;;2.97;;
17993;SDS011;9122;48.406;9.984;2022-12-29T17:40:26;4.93;;;3.47;;
17993;SDS011;9122;48.406;9.984;2022-12-29T17:43:13;3.70;;;3.40;;
17993;SDS011;9122;48.406;9.984;2022-12-29T17:45:58;4.40;;;3.93;;
17993;SDS011;9122;48.406;9.984;2022-12-29T17:48:43;4.17;;;3.53;;
17993;SDS011;9122;48.406;9.984;2022-12-29T17:51:28;5.43;;;3.57;;
17993;SDS011;9122;48.406;9.984;2022-12-29T17:54:19;5.70;;;3.73;;
17993;SDS011;9122;48.406;9.984;2022-12-29T17:57:07;4.43;;;4.03;;
17993;SDS011;9122;48.406;9.984;2022-12-29T17:59:55;6.53;;;4.43;;
17993;SDS011;9122;48.406;9.984;2022-12-29T18:03:13;5.13;;;4.40;;
17993;SDS011;9122;48.406;9.984;2022-12-29T18:05:58;5.63;;;4.60;;
17993;SDS011;9122;48.406;9.984;2022-12-29T18:08:44;6.77;;;4.97;;
17993;SDS011;9122;48.406;9.984;2022-12-29T18:11:29;7.17;;;5.43;;
17993;SDS011;9122;48.406;9.984;2022-12-29T18:14:14;8.80;;;5.80;;
17993;SDS011;9122;48.406;9.984;2022-12-29T18:16:59;8.17;;;6.20;;
17993;SDS011;9122;48.406;9.984;2022-12-29T18:19:43;6.27;;;5.67;;
17993;SDS011;9122;48.406;9.984;2022-12-29T18:22:28;5.03;;;4.07;;
17993;SDS011;9122;48.406;9.984;2022-12-29T18:25:24;4.50;;;4.10;;
17993;SDS011;9122;48.406;9.984;2022-12-29T18:28:13;3.83;;;3.50;;
17993;SDS011;9122;48.406;9.984;2022-12-29T18:31:01;3.87;;;3.53;;
17993;SDS011;9122;48.406;9.984;2022-12-29T18:33:46;4.60;;;3.93;;
17993;SDS011;9122;48.406;9.984;2022-12-29T18:36:36;4.50;;;3.07;;
17993;SDS011;9122;48.406;9.984;2022-12-29T18:39:21;5.37;;;3.23;;
17993;SDS011;9122;48.406;9.984;2022-12-29T18:42:05;3.57;;;3.27;;
17993;SDS011;9122;48.406;9.984;2022-12-29T18:44:50;4.13;;;3.73;;
17993;SDS011;9122;48.406;9.984;2022-12-29T18:47:36;3.87;;;3.57;;
17993;SDS011;9122;48.406;9.984;2022-12-29T18:50:22;4.47;;;4.07;;
17993;SDS011;9122;48.406;9.984;2022-12-29T18:53:16;5.30;;;4.80;;
17993;SDS011;9122;48.406;9.984;2022-12-29T18:56:09;5.30;;;4.87;;
17993;SDS011;9122;48.406;9.984;2022-12-29T18:58:54;5.17;;;4.67;;
17993;SDS011;9122;48.406;9.984;2022-12-29T19:01:39;5.07;;;4.43;;
17993;SDS011;9122;48.406;9.984;2022-12-29T19:04:24;4.87;;;4.53;;
17993;SDS011;9122;48.406;9.984;2022-12-29T19:07:08;4.50;;;4.10;;
17993;SDS011;9122;48.406;9.984;2022-12-29T19:09:58;4.30;;;4.00;;
17993;SDS011;9122;48.406;9.984;2022-12-29T19:12:43;4.13;;;3.80;;
17993;SDS011;9122;48.406;9.984;2022-12-29T19:15:41;3.70;;;3.40;;
17993;SDS011;9122;48.406;9.984;2022-12-29T19:18:28;4.10;;;3.20;;
17993;SDS011;9122;48.406;9.984;2022-12-29T19:21:28;4.77;;;3.77;;
17993;SDS011;9122;48.406;9.984;2022-12-29T19:24:20;3.77;;;3.47;;
17993;SDS011;9122;48.406;9.984;2022-12-29T19:27:05;3.30;;;3.10;;
17993;SDS011;9122;48.406;9.984;2022-12-29T19:29:52;3.73;;;2.67;;
17993;SDS011;9122;48.406;9.984;2022-12-29T19:32:41;3.73;;;3.43;;
17993;SDS011;9122;48.406;9.984;2022-12-29T19:35:27;4.47;;;4.07;;
17993;SDS011;9122;48.406;9.984;2022-12-29T19:38:15;3.93;;;3.10;;
17993;SDS011;9122;48.406;9.984;2022-12-29T19:41:04;4.70;;;3.00;;
17993;SDS011;9122;48.406;9.984;2022-12-29T19:43:54;3.20;;;2.87;;
17993;SDS011;9122;48.406;9.984;2022-12-29T19:46:47;2.93;;;2.63;;
17993;SDS011;9122;48.406;9.984;2022-12-29T19:49:41;2.70;;;2.50;;
17993;SDS011;9122;48.406;9.984;2022-12-29T19:52:29;2.87;;;2.63;;
17993;SDS011;9122;48.406;9.984;2022-12-29T19:55:17;3.60;;;2.20;;
17993;SDS011;9122;48.406;9.984;2022-12-29T19:58:02;2.83;;;2.53;;
17993;SDS011;9122;48.406;9.984;2022-12-29T20:00:47;2.30;;;2.20;;
17993;SDS011;9122;48.406;9.984;2022-12-29T20:03:35;3.17;;;2.37;;
17993;SDS011;9122;48.406;9.984;2022-12-29T20:06:21;3.37;;;2.33;;
17993;SDS011;9122;48.406;9.984;2022-12-29T20:09:06;2.83;;;2.60;;
17993;SDS011;9122;48.406;9.984;2022-12-29T20:11:50;2.50;;;2.30;;
17993;SDS011;9122;48.406;9.984;2022-12-29T20:14:36;2.50;;;2.33;;
17993;SDS011;9122;48.406;9.984;2022-12-29T20:17:21;3.63;;;3.33;;
17993;SDS011;9122;48.406;9.984;2022-12-29T20:20:08;3.47;;;3.17;;
17993;SDS011;9122;48.406;9.984;2022-12-29T20:22:53;3.97;;;2.90;;
17993;SDS011;9122;48.406;9.984;2022-12-29T20:25:38;2.93;;;2.73;;
17993;SDS011;9122;48.406;9.984;2022-12-29T20:28:23;2.80;;;2.60;;
17993;SDS011;9122;48.406;9.984;2022-12-29T20:31:13;3.07;;;2.77;;
17993;SDS011;9122;48.406;9.984;2022-12-29T20:34:08;2.50;;;2.30;;
17993;SDS011;9122;48.406;9.984;2022-12-29T20:36:53;3.10;;;2.80;;
17993;SDS011;9122;48.406;9.984;2022-12-29T20:39:51;2.63;;;2.43;;
17993;SDS011;9122;48.406;9.984;2022-12-29T20:42:37;2.80;;;2.60;;
17993;SDS011;9122;48.406;9.984;2022-12-29T20:45:22;3.20;;;3.00;;
17993;SDS011;9122;48.406;9.984;2022-12-29T20:48:06;3.90;;;2.83;;
17993;SDS011;9122;48.406;9.984;2022-12-29T20:50:53;2.90;;;2.70;;
17993;SDS011;9122;48.406;9.984;2022-12-29T20:53:59;3.20;;;2.90;;
17993;SDS011;9122;48.406;9.984;2022-12-29T20:56:50;3.53;;;3.23;;
17993;SDS011;9122;48.406;9.984;2022-12-29T20:59:35;4.80;;;2.83;;
17993;SDS011;9122;48.406;9.984;2022-12-29T22:01:01;2.23;;;2.03;;
17993;SDS011;9122;48.406;9.984;2022-12-29T22:04:07;2.37;;;2.27;;
17993;SDS011;9122;48.406;9.984;2022-12-29T22:07:14;2.83;;;2.53;;
17993;SDS011;9122;48.406;9.984;2022-12-29T22:10:17;2.00;;;1.90;;
17993;SDS011;9122;48.406;9.984;2022-12-29T22:13:21;3.53;;;2.40;;
17993;SDS011;9122;48.406;9.984;2022-12-29T22:16:06;1.80;;;1.70;;
17993;SDS011;9122;48.406;9.984;2022-12-29T22:19:05;0.87;;;0.80;;
17993;SDS011;9122;48.406;9.984;2022-12-29T22:21:56;0.97;;;0.67;;
17993;SDS011;9122;48.406;9.984;2022-12-29T22:24:41;0.87;;;0.50;;
17993;SDS011;9122;48.406;9.984;2022-12-29T22:27:29;0.33;;;0.33;;
17993;SDS011;9122;48.406;9.984;2022-12-29T22:33:29;0.70;;;0.40;;